Time;durP1;ratioP1;P1;durP2;ratioP2;P2;SDS_P1;SDS_P2;PMS_P1;PMS_P2;Temp;Humidity;BMP_temperature;BMP_pressure;BME280_temperature;BME280_humidity;BME280_pressure;Samples;Min_cycle;Max_cycle;Signal;HPM_P1;HPM_P2
2022/09/27 00:00:33;;;;;;;;;1.00;1.00;;;;;;;;5081625;27;45351;-78
2022/09/27 00:02:58;;;;;;;;;4.33;1.67;;;;;;;;5086642;27;45542;-76
2022/09/27 00:05:24;;;;;;;;;3.33;1.00;;;;;;;;5070176;27;46855;-77
2022/09/27 00:07:49;;;;;;;;;4.00;3.00;;;;;;;;5086691;27;45434;-79
2022/09/27 00:10:15;;;;;;;;;1.67;1.67;;;;;;;;5086581;27;45372;-78
2022/09/27 00:12:40;;;;;;;;;2.00;2.00;;;;;;;;5113290;27;45569;-78
2022/09/27 00:15:06;;;;;;;;;1.33;1.33;;;;;;;;5092641;27;46789;-76
2022/09/27 00:17:32;;;;;;;;;1.00;1.00;;;;;;;;5106869;27;45396;-76
2022/09/27 00:19:58;;;;;;;;;3.67;2.00;;;;;;;;5091328;27;45544;-76
2022/09/27 00:22:23;;;;;;;;;2.00;1.00;;;;;;;;5102557;27;45951;-77
2022/09/27 00:24:49;;;;;;;;;2.00;2.00;;;;;;;;5110468;27;45933;-78
2022/09/27 00:27:14;;;;;;;;;3.00;3.00;;;;;;;;5099962;27;45346;-78
2022/09/27 00:29:40;;;;;;;;;1.67;1.67;;;;;;;;5082418;27;45837;-79
2022/09/27 00:32:05;;;;;;;;;2.00;2.00;;;;;;;;5101899;27;45383;-78
2022/09/27 00:34:31;;;;;;;;;5.00;2.00;;;;;;;;5095101;27;48139;-79
2022/09/27 00:36:56;;;;;;;;;3.00;2.00;;;;;;;;5109425;27;45851;-79
2022/09/27 00:39:21;;;;;;;;;3.00;2.00;;;;;;;;5109484;27;45575;-78
2022/09/27 00:41:47;;;;;;;;;4.67;3.00;;;;;;;;5090587;27;45533;-79
2022/09/27 00:44:28;;;;;;;;;2.00;2.00;;;;;;;;5108402;27;45406;-77
2022/09/27 00:47:04;;;;;;;;;2.00;2.00;;;;;;;;5104410;27;45529;-76
2022/09/27 00:49:40;;;;;;;;;3.33;2.00;;;;;;;;5101820;27;45511;-76
2022/09/27 00:52:17;;;;;;;;;2.33;2.00;;;;;;;;5087467;27;45930;-77
2022/09/27 00:54:46;;;;;;;;;6.00;1.67;;;;;;;;5089690;27;47569;-75
2022/09/27 00:57:12;;;;;;;;;4.00;3.00;;;;;;;;5104788;27;45848;-76
2022/09/27 00:59:40;;;;;;;;;2.67;2.67;;;;;;;;5108696;27;45539;-76
2022/09/27 01:02:06;;;;;;;;;6.67;3.00;;;;;;;;5102806;27;45606;-76
2022/09/27 01:04:32;;;;;;;;;3.67;1.67;;;;;;;;5110152;27;46469;-77
2022/09/27 01:06:58;;;;;;;;;4.00;2.00;;;;;;;;5089719;27;45786;-76
2022/09/27 01:09:24;;;;;;;;;3.00;1.67;;;;;;;;5093703;27;45538;-76
2022/09/27 01:12:08;;;;;;;;;2.67;2.67;;;;;;;;5112515;27;45542;-76
2022/09/27 01:14:33;;;;;;;;;2.00;2.00;;;;;;;;5093271;27;47247;-76
2022/09/27 01:17:04;;;;;;;;;1.00;1.00;;;;;;;;5102239;27;45427;-76
2022/09/27 01:19:33;;;;;;;;;2.00;1.00;;;;;;;;5107105;27;46014;-75
2022/09/27 01:22:24;;;;;;;;;5.00;2.33;;;;;;;;5103359;27;45738;-78
2022/09/27 01:25:08;;;;;;;;;3.00;2.33;;;;;;;;5078584;27;45543;-77
2022/09/27 01:27:36;;;;;;;;;3.67;3.67;;;;;;;;5100602;27;45477;-78
2022/09/27 01:30:07;;;;;;;;;3.00;3.00;;;;;;;;5105917;27;45778;-76
2022/09/27 01:32:54;;;;;;;;;3.00;3.00;;;;;;;;5096698;27;45847;-77
2022/09/27 01:35:38;;;;;;;;;3.00;1.67;;;;;;;;5102708;27;45888;-76
2022/09/27 01:38:22;;;;;;;;;3.00;3.00;;;;;;;;5109988;27;45801;-76
2022/09/27 01:40:53;;;;;;;;;6.33;3.67;;;;;;;;5102644;27;45948;-76
2022/09/27 01:43:23;;;;;;;;;1.67;1.67;;;;;;;;5091380;27;45806;-76
2022/09/27 01:45:55;;;;;;;;;2.33;2.33;;;;;;;;5096303;27;45683;-76
2022/09/27 01:48:24;;;;;;;;;2.00;2.00;;;;;;;;5106089;27;45560;-77
2022/09/27 01:51:03;;;;;;;;;3.00;2.00;;;;;;;;5108354;27;45724;-76
2022/09/27 01:53:31;;;;;;;;;1.00;1.00;;;;;;;;5098472;27;45499;-76
2022/09/27 01:56:01;;;;;;;;;3.67;2.00;;;;;;;;5089297;27;47020;-75
2022/09/27 01:58:35;;;;;;;;;2.00;2.00;;;;;;;;5104147;27;45324;-76
2022/09/27 02:01:01;;;;;;;;;1.33;1.33;;;;;;;;5110938;27;45458;-76
2022/09/27 02:03:30;;;;;;;;;2.00;1.00;;;;;;;;5110134;27;45424;-77
2022/09/27 02:05:59;;;;;;;;;1.00;1.00;;;;;;;;5107691;27;46204;-76
2022/09/27 02:08:43;;;;;;;;;2.00;1.00;;;;;;;;5093860;27;45889;-76
2022/09/27 02:11:10;;;;;;;;;3.33;2.00;;;;;;;;5090112;27;45711;-77
2022/09/27 02:13:41;;;;;;;;;1.00;1.00;;;;;;;;5102303;27;45520;-76
2022/09/27 02:16:06;;;;;;;;;2.67;1.00;;;;;;;;5100621;27;45826;-77
2022/09/27 02:18:35;;;;;;;;;2.00;1.00;;;;;;;;5111576;27;45781;-76
2022/09/27 02:21:03;;;;;;;;;2.33;1.00;;;;;;;;5105311;27;46542;-75
2022/09/27 02:23:34;;;;;;;;;3.33;2.00;;;;;;;;5112521;27;45598;-77
2022/09/27 02:26:00;;;;;;;;;4.67;1.33;;;;;;;;5087482;27;46353;-77
2022/09/27 02:28:32;;;;;;;;;0.33;0.33;;;;;;;;5111036;27;45520;-75
2022/09/27 02:30:58;;;;;;;;;3.00;2.00;;;;;;;;5091965;27;45533;-76
2022/09/27 02:33:25;;;;;;;;;2.00;1.00;;;;;;;;5111090;27;46035;-75
2022/09/27 02:35:50;;;;;;;;;3.00;1.33;;;;;;;;5102354;27;45551;-77
2022/09/27 02:38:15;;;;;;;;;2.00;2.00;;;;;;;;5093295;27;45760;-77
2022/09/27 02:40:43;;;;;;;;;1.00;1.00;;;;;;;;5110976;27;45718;-76
2022/09/27 02:43:08;;;;;;;;;2.00;2.00;;;;;;;;5113513;27;45518;-75
2022/09/27 02:45:42;;;;;;;;;6.33;1.67;;;;;;;;5109934;27;46386;-76
2022/09/27 02:48:26;;;;;;;;;0.33;0.33;;;;;;;;5101090;27;45430;-73
2022/09/27 02:50:54;;;;;;;;;3.00;3.00;;;;;;;;5110298;27;45584;-76
2022/09/27 02:53:22;;;;;;;;;4.00;1.00;;;;;;;;5114673;27;45444;-77
2022/09/27 02:56:07;;;;;;;;;1.00;1.00;;;;;;;;5100800;27;45705;-77
2022/09/27 02:58:44;;;;;;;;;1.00;1.00;;;;;;;;5093004;27;45512;-74
2022/09/27 03:01:21;;;;;;;;;2.00;2.00;;;;;;;;5108527;27;45901;-77
2022/09/27 03:03:52;;;;;;;;;0.00;0.00;;;;;;;;5108277;27;45531;-77
2022/09/27 03:06:19;;;;;;;;;1.67;0.33;;;;;;;;5111327;27;46550;-76
2022/09/27 03:08:45;;;;;;;;;1.00;1.00;;;;;;;;5115393;27;45817;-76
2022/09/27 03:11:10;;;;;;;;;1.00;1.00;;;;;;;;5109392;27;45827;-76
2022/09/27 03:13:39;;;;;;;;;6.00;2.00;;;;;;;;5095942;27;45577;-77
2022/09/27 03:16:05;;;;;;;;;3.00;1.00;;;;;;;;5092546;27;47321;-77
2022/09/27 03:18:30;;;;;;;;;2.33;2.33;;;;;;;;5115186;27;45408;-76
2022/09/27 03:20:55;;;;;;;;;1.33;1.33;;;;;;;;5087883;27;45398;-78
2022/09/27 03:23:20;;;;;;;;;1.33;1.33;;;;;;;;5106152;27;47169;-77
2022/09/27 03:25:46;;;;;;;;;3.67;2.00;;;;;;;;5107655;27;45778;-77
2022/09/27 03:28:11;;;;;;;;;4.00;3.00;;;;;;;;5085547;27;45723;-76
2022/09/27 03:30:37;;;;;;;;;2.67;1.00;;;;;;;;5104106;27;45590;-75
2022/09/27 03:33:02;;;;;;;;;3.33;0.00;;;;;;;;5113889;27;45474;-75
2022/09/27 03:35:28;;;;;;;;;3.33;2.00;;;;;;;;5107706;27;45924;-75
2022/09/27 03:37:53;;;;;;;;;1.67;1.67;;;;;;;;5113517;27;45456;-76
2022/09/27 03:40:18;;;;;;;;;3.00;1.00;;;;;;;;5091588;27;45745;-78
2022/09/27 03:42:44;;;;;;;;;2.00;1.00;;;;;;;;5089515;27;45781;-76
2022/09/27 03:45:10;;;;;;;;;3.00;1.67;;;;;;;;5113782;27;45796;-75
2022/09/27 03:47:38;;;;;;;;;2.67;1.33;;;;;;;;5113916;27;45507;-77
2022/09/27 03:50:04;;;;;;;;;2.00;0.33;;;;;;;;5087578;27;45749;-76
2022/09/27 03:52:29;;;;;;;;;2.00;2.00;;;;;;;;5106701;27;45749;-76
2022/09/27 03:54:55;;;;;;;;;2.67;2.00;;;;;;;;5112716;27;45760;-77
2022/09/27 03:57:20;;;;;;;;;2.00;1.00;;;;;;;;5110079;27;45459;-77
2022/09/27 03:59:46;;;;;;;;;2.00;2.00;;;;;;;;5094882;27;45746;-78
2022/09/27 04:02:11;;;;;;;;;1.00;1.00;;;;;;;;5112189;27;45503;-77
2022/09/27 04:04:36;;;;;;;;;1.67;1.67;;;;;;;;5106979;27;46243;-76
2022/09/27 04:07:02;;;;;;;;;2.00;2.00;;;;;;;;5112681;27;45314;-77
2022/09/27 04:09:27;;;;;;;;;1.00;1.00;;;;;;;;5111794;27;45497;-78
2022/09/27 04:11:52;;;;;;;;;1.00;1.00;;;;;;;;5105811;27;45765;-76
2022/09/27 04:14:17;;;;;;;;;2.67;2.00;;;;;;;;5102635;27;46333;-77
2022/09/27 04:16:43;;;;;;;;;2.67;0.33;;;;;;;;5104753;27;45752;-76
2022/09/27 04:19:08;;;;;;;;;1.33;1.33;;;;;;;;5109712;27;45678;-78
2022/09/27 04:21:34;;;;;;;;;2.67;1.67;;;;;;;;5102523;27;45468;-78
2022/09/27 04:24:00;;;;;;;;;2.00;0.33;;;;;;;;5081552;27;45460;-78
2022/09/27 04:26:25;;;;;;;;;1.00;1.00;;;;;;;;5113402;27;45699;-76
2022/09/27 04:28:51;;;;;;;;;2.33;1.00;;;;;;;;5102910;27;45780;-81
2022/09/27 04:31:16;;;;;;;;;1.00;1.00;;;;;;;;5091565;27;46548;-80
2022/09/27 04:33:41;;;;;;;;;2.00;2.00;;;;;;;;5110274;27;46920;-73
2022/09/27 04:36:27;;;;;;;;;2.67;1.67;;;;;;;;5097767;27;45901;-77
2022/09/27 04:38:53;;;;;;;;;1.00;1.00;;;;;;;;5112189;27;45719;-77
2022/09/27 04:41:20;;;;;;;;;4.00;1.33;;;;;;;;5118804;27;45470;-78
2022/09/27 04:43:48;;;;;;;;;1.00;1.00;;;;;;;;5112415;27;45586;-81
2022/09/27 04:46:16;;;;;;;;;3.67;2.00;;;;;;;;5094698;27;45718;-83
2022/09/27 04:48:42;;;;;;;;;1.00;1.00;;;;;;;;5092293;27;45671;-83
2022/09/27 04:51:11;;;;;;;;;3.33;1.67;;;;;;;;5108025;27;45716;-83
2022/09/27 04:53:47;;;;;;;;;2.00;1.00;;;;;;;;5108990;27;46686;-83
2022/09/27 04:56:21;;;;;;;;;1.00;1.00;;;;;;;;5108312;27;45702;-82
2022/09/27 04:59:04;;;;;;;;;2.33;1.33;;;;;;;;5113391;27;46335;-81
2022/09/27 05:01:39;;;;;;;;;1.00;1.00;;;;;;;;5110058;27;45693;-83
2022/09/27 05:04:04;;;;;;;;;1.00;1.00;;;;;;;;5082859;27;46687;-82
2022/09/27 05:06:29;;;;;;;;;1.67;1.67;;;;;;;;5094550;27;45557;-83
2022/09/27 05:08:55;;;;;;;;;3.33;3.00;;;;;;;;5098975;27;45426;-82
2022/09/27 05:12:07;;;;;;;;;1.00;1.00;;;;;;;;5097437;27;45422;-83
2022/09/27 05:14:38;;;;;;;;;3.00;1.33;;;;;;;;5078236;27;46817;-85
2022/09/27 05:18:01;;;;;;;;;;;;;;;;;;;;;
2022/09/27 05:20:24;;;;;;;;;1.00;1.00;;;;;;;;5031051;28;45526;-85
2022/09/27 05:22:55;;;;;;;;;0.67;0.67;;;;;;;;5031602;28;45969;-84
2022/09/27 05:25:23;;;;;;;;;0.33;0.33;;;;;;;;5038780;28;46093;-81
2022/09/27 05:27:49;;;;;;;;;1.00;1.00;;;;;;;;5021827;28;45431;-81
2022/09/27 05:30:14;;;;;;;;;3.00;2.00;;;;;;;;5065798;27;45574;-79
2022/09/27 05:32:45;;;;;;;;;2.00;0.67;;;;;;;;5111174;27;45952;-84
2022/09/27 05:35:10;;;;;;;;;1.33;1.00;;;;;;;;5092492;27;47679;-80
2022/09/27 05:37:36;;;;;;;;;5.00;1.33;;;;;;;;5113153;27;45444;-82
2022/09/27 05:40:01;;;;;;;;;4.67;2.00;;;;;;;;5094313;27;45909;-83
2022/09/27 05:42:27;;;;;;;;;1.67;1.67;;;;;;;;5113100;27;45513;-83
2022/09/27 05:44:52;;;;;;;;;3.00;1.00;;;;;;;;5081619;27;46915;-80
2022/09/27 05:47:17;;;;;;;;;1.00;1.00;;;;;;;;5114138;27;45459;-81
2022/09/27 05:49:43;;;;;;;;;3.00;0.00;;;;;;;;5117500;27;45939;-82
2022/09/27 05:52:08;;;;;;;;;3.67;1.00;;;;;;;;5097679;27;45710;-85
2022/09/27 05:54:33;;;;;;;;;2.00;1.00;;;;;;;;5113536;27;45992;-84
2022/09/27 05:56:59;;;;;;;;;1.00;1.00;;;;;;;;5095803;27;45715;-85
2022/09/27 05:59:27;;;;;;;;;3.67;2.00;;;;;;;;5111678;27;45482;-85
2022/09/27 06:01:53;;;;;;;;;1.00;1.00;;;;;;;;5112835;27;45849;-82
2022/09/27 06:04:18;;;;;;;;;2.33;1.33;;;;;;;;5113172;27;45902;-83
2022/09/27 06:06:44;;;;;;;;;1.33;1.33;;;;;;;;5115199;27;46077;-85
2022/09/27 06:09:10;;;;;;;;;0.67;0.67;;;;;;;;5096909;27;45563;-85
2022/09/27 06:11:35;;;;;;;;;6.33;1.33;;;;;;;;5112232;27;45585;-84
2022/09/27 06:14:01;;;;;;;;;2.33;1.33;;;;;;;;5114665;27;46089;-84
2022/09/27 06:16:26;;;;;;;;;1.33;1.00;;;;;;;;5113689;27;45818;-84
2022/09/27 06:18:52;;;;;;;;;1.33;1.33;;;;;;;;5112906;27;45895;-83
2022/09/27 06:21:18;;;;;;;;;2.33;1.67;;;;;;;;5116490;27;45806;-84
2022/09/27 06:23:44;;;;;;;;;1.33;1.33;;;;;;;;5111494;27;45705;-83
2022/09/27 06:26:12;;;;;;;;;2.67;1.00;;;;;;;;5096852;27;45689;-85
2022/09/27 06:28:38;;;;;;;;;1.67;1.67;;;;;;;;5118127;27;45381;-83
2022/09/27 06:31:04;;;;;;;;;5.00;0.67;;;;;;;;5117317;27;45616;-83
2022/09/27 06:33:31;;;;;;;;;1.67;1.67;;;;;;;;5100682;27;46053;-83
2022/09/27 06:36:03;;;;;;;;;3.33;1.00;;;;;;;;5114769;27;45540;-81
2022/09/27 06:38:29;;;;;;;;;2.00;2.00;;;;;;;;5103598;27;45526;-83
2022/09/27 06:40:56;;;;;;;;;5.33;2.33;;;;;;;;5116163;27;45491;-84
2022/09/27 06:43:28;;;;;;;;;3.67;2.67;;;;;;;;5101015;27;45955;-87
2022/09/27 06:45:54;;;;;;;;;3.00;1.33;;;;;;;;5099739;27;45559;-84
2022/09/27 06:48:19;;;;;;;;;6.33;2.67;;;;;;;;5113523;27;45681;-84
2022/09/27 06:50:45;;;;;;;;;3.00;2.00;;;;;;;;5116195;27;45433;-83
2022/09/27 06:53:11;;;;;;;;;2.67;1.67;;;;;;;;5096155;27;45817;-85
2022/09/27 06:55:37;;;;;;;;;1.67;1.67;;;;;;;;5111883;27;45458;-84
2022/09/27 07:00:48;;;;;;;;;0.00;0.00;;;;;;;;5111428;27;45489;-83
2022/09/27 07:03:13;;;;;;;;;1.00;1.00;;;;;;;;5111368;27;46703;-85
2022/09/27 07:05:41;;;;;;;;;1.33;1.33;;;;;;;;5113808;27;45787;-83
2022/09/27 07:08:07;;;;;;;;;3.67;1.67;;;;;;;;5110296;27;45317;-83
2022/09/27 07:10:33;;;;;;;;;0.00;0.00;;;;;;;;5089417;27;45758;-83
2022/09/27 07:13:04;;;;;;;;;1.00;1.00;;;;;;;;5091201;27;47027;-83
2022/09/27 07:15:29;;;;;;;;;2.00;2.00;;;;;;;;5115564;27;45731;-83
2022/09/27 07:17:58;;;;;;;;;2.33;2.00;;;;;;;;5114193;27;45703;-82
2022/09/27 07:20:24;;;;;;;;;0.67;0.67;;;;;;;;5105584;27;45477;-84
2022/09/27 07:22:49;;;;;;;;;1.67;1.00;;;;;;;;5091727;27;47164;-83
2022/09/27 07:25:14;;;;;;;;;1.00;1.00;;;;;;;;5098990;27;45483;-84
2022/09/27 07:27:40;;;;;;;;;3.67;1.00;;;;;;;;5102184;27;45440;-84
2022/09/27 07:30:06;;;;;;;;;1.00;1.00;;;;;;;;5114509;27;45849;-84
2022/09/27 07:32:31;;;;;;;;;1.00;1.00;;;;;;;;5106414;27;45596;-82
2022/09/27 07:34:57;;;;;;;;;1.67;1.00;;;;;;;;5114867;27;45763;-79
2022/09/27 07:37:22;;;;;;;;;1.33;0.33;;;;;;;;5102198;27;45830;-76
2022/09/27 07:39:53;;;;;;;;;1.00;1.00;;;;;;;;5113858;27;45758;-78
2022/09/27 07:42:19;;;;;;;;;1.00;1.00;;;;;;;;5095424;27;47845;-78
2022/09/27 07:44:47;;;;;;;;;2.00;2.00;;;;;;;;5105832;27;45477;-78
2022/09/27 07:47:12;;;;;;;;;2.00;2.00;;;;;;;;5113786;27;45732;-77
2022/09/27 07:49:37;;;;;;;;;2.33;0.00;;;;;;;;5110295;27;46808;-76
2022/09/27 07:52:03;;;;;;;;;3.00;1.00;;;;;;;;5088619;27;47782;-79
2022/09/27 07:54:28;;;;;;;;;1.00;1.00;;;;;;;;5114354;27;45456;-81
2022/09/27 07:56:54;;;;;;;;;4.00;0.33;;;;;;;;5113539;27;45652;-79
2022/09/27 07:59:20;;;;;;;;;3.33;1.33;;;;;;;;5095685;27;46097;-78
2022/09/27 08:01:45;;;;;;;;;2.00;0.33;;;;;;;;5095071;27;48091;-78
2022/09/27 08:04:10;;;;;;;;;0.00;0.00;;;;;;;;5113301;27;45395;-79
2022/09/27 08:06:36;;;;;;;;;1.33;1.00;;;;;;;;5095558;27;45947;-78
2022/09/27 08:09:04;;;;;;;;;3.00;1.00;;;;;;;;5114337;27;45304;-78
2022/09/27 08:11:29;;;;;;;;;0.00;0.00;;;;;;;;5101662;27;46247;-77
2022/09/27 08:13:55;;;;;;;;;0.00;0.00;;;;;;;;5114037;27;45741;-78
2022/09/27 08:16:21;;;;;;;;;0.67;0.00;;;;;;;;5111226;27;45956;-77
2022/09/27 08:18:46;;;;;;;;;0.00;0.00;;;;;;;;5113046;27;45752;-76
2022/09/27 08:21:11;;;;;;;;;1.00;1.00;;;;;;;;5096418;27;47921;-77
2022/09/27 08:23:37;;;;;;;;;0.00;0.00;;;;;;;;5095917;27;45859;-78
2022/09/27 08:26:02;;;;;;;;;1.67;0.33;;;;;;;;5113324;27;45475;-81
2022/09/27 08:28:28;;;;;;;;;1.00;1.00;;;;;;;;5115511;27;45847;-84
2022/09/27 08:30:56;;;;;;;;;0.67;0.67;;;;;;;;5108371;27;46020;-79
2022/09/27 08:33:21;;;;;;;;;1.00;0.00;;;;;;;;5111451;27;45654;-77
2022/09/27 08:35:46;;;;;;;;;2.67;1.00;;;;;;;;5113621;27;45435;-78
2022/09/27 08:38:12;;;;;;;;;2.00;0.00;;;;;;;;5101590;27;45526;-77
2022/09/27 08:40:53;;;;;;;;;4.00;1.00;;;;;;;;5093546;27;45438;-79
2022/09/27 08:43:20;;;;;;;;;1.33;0.33;;;;;;;;5074546;27;45486;-80
2022/09/27 08:45:54;;;;;;;;;1.00;0.00;;;;;;;;5096270;27;45747;-79
2022/09/27 08:48:20;;;;;;;;;1.00;1.00;;;;;;;;5107332;27;45408;-79
2022/09/27 08:50:47;;;;;;;;;0.33;0.00;;;;;;;;5111488;27;45405;-80
2022/09/27 08:53:31;;;;;;;;;1.33;0.00;;;;;;;;5101432;27;45633;-79
2022/09/27 08:55:57;;;;;;;;;0.67;0.67;;;;;;;;5113886;27;45380;-79
2022/09/27 08:58:34;;;;;;;;;2.33;0.33;;;;;;;;5110196;27;45615;-76
2022/09/27 09:01:05;;;;;;;;;0.00;0.00;;;;;;;;5112982;27;45665;-78
2022/09/27 09:03:33;;;;;;;;;0.67;0.00;;;;;;;;5078054;27;45399;-78
2022/09/27 09:06:04;;;;;;;;;0.00;0.00;;;;;;;;5113247;27;45545;-77
2022/09/27 09:08:33;;;;;;;;;1.00;1.00;;;;;;;;5094316;27;46228;-78
2022/09/27 09:13:51;;;;;;;;;2.00;1.00;;;;;;;;5092404;27;45460;-86
2022/09/27 09:16:37;;;;;;;;;1.00;1.00;;;;;;;;5099208;27;46045;-79
2022/09/27 09:19:03;;;;;;;;;0.00;0.00;;;;;;;;5093992;27;45884;-79
2022/09/27 09:21:54;;;;;;;;;0.67;0.67;;;;;;;;5095965;27;46061;-78
2022/09/27 09:24:22;;;;;;;;;0.67;0.67;;;;;;;;5088067;27;45917;-78
2022/09/27 09:27:09;;;;;;;;;2.00;0.33;;;;;;;;5094190;27;45480;-80
2022/09/27 09:29:53;;;;;;;;;0.33;0.33;;;;;;;;5116105;27;45917;-80
2022/09/27 09:32:18;;;;;;;;;2.00;1.33;;;;;;;;5094439;27;45461;-78
2022/09/27 09:34:48;;;;;;;;;1.00;1.00;;;;;;;;5097329;27;45849;-79
2022/09/27 09:37:16;;;;;;;;;0.67;0.67;;;;;;;;5111239;27;45390;-78
2022/09/27 09:39:44;;;;;;;;;0.00;0.00;;;;;;;;5112835;27;45749;-79
2022/09/27 09:42:24;;;;;;;;;2.00;0.00;;;;;;;;5111667;27;45697;-78
2022/09/27 09:45:10;;;;;;;;;1.00;1.00;;;;;;;;5110314;27;45424;-79
2022/09/27 09:47:38;;;;;;;;;1.75;1.75;;;;;;;;5080962;27;45789;-79
2022/09/27 09:50:12;;;;;;;;;3.00;0.25;;;;;;;;5110649;27;45688;-78
2022/09/27 09:52:50;;;;;;;;;0.00;0.00;;;;;;;;5095272;27;46359;-79
2022/09/27 09:55:23;;;;;;;;;0.00;0.00;;;;;;;;5094022;27;45892;-79
2022/09/27 09:57:54;;;;;;;;;0.25;0.00;;;;;;;;5089128;27;45767;-80
2022/09/27 10:00:22;;;;;;;;;1.75;0.25;;;;;;;;5106111;27;45345;-82
2022/09/27 10:02:50;;;;;;;;;0.00;0.00;;;;;;;;5090796;27;46468;-83
2022/09/27 10:05:18;;;;;;;;;1.00;0.00;;;;;;;;5092993;27;45851;-79
2022/09/27 10:07:44;;;;;;;;;0.25;0.25;;;;;;;;5113982;27;45578;-80
2022/09/27 10:10:14;;;;;;;;;2.00;0.00;;;;;;;;5105324;27;46221;-84
2022/09/27 10:12:41;;;;;;;;;1.00;1.00;;;;;;;;5095879;27;47631;-83
2022/09/27 10:15:12;;;;;;;;;0.00;0.00;;;;;;;;5091060;27;45486;-83
2022/09/27 10:17:40;;;;;;;;;0.00;0.00;;;;;;;;5107403;27;45932;-84
2022/09/27 10:20:06;;;;;;;;;1.00;1.00;;;;;;;;5089305;27;46102;-86
2022/09/27 10:22:43;;;;;;;;;1.50;1.00;;;;;;;;5093862;27;45836;-87
2022/09/27 10:25:09;;;;;;;;;0.00;0.00;;;;;;;;5107472;27;45623;-82
2022/09/27 10:34:06;;;;;;;;;1.00;1.00;;;;;;;;5033394;28;45787;-83
2022/09/27 10:40:25;;;;;;;;;0.75;0.00;;;;;;;;5035812;28;45619;-87
2022/09/27 10:43:31;;;;;;;;;;;;;;;;;;;;;
2022/09/27 10:49:31;;;;;;;;;0.67;0.33;;;;;;;;4993489;28;45570;-83
2022/09/27 10:52:20;;;;;;;;;0.00;0.00;;;;;;;;5025637;28;45627;-84
2022/09/27 10:55:17;;;;;;;;;;;;;;;;;;;;;
2022/09/27 10:58:02;;;;;;;;;0.00;0.00;;;;;;;;5090848;27;74596;-85
2022/09/27 11:00:46;;;;;;;;;0.00;0.00;;;;;;;;5089108;27;45111;-89
2022/09/27 11:03:17;;;;;;;;;1.00;0.00;;;;;;;;5108527;27;45393;-85
2022/09/27 11:05:43;;;;;;;;;1.33;1.00;;;;;;;;5110988;27;45811;-82
2022/09/27 11:08:18;;;;;;;;;1.00;1.00;;;;;;;;5093538;27;45849;-86
2022/09/27 11:10:44;;;;;;;;;2.00;0.67;;;;;;;;5112437;27;45451;-86
2022/09/27 11:13:23;;;;;;;;;0.33;0.33;;;;;;;;5102645;27;45808;-84
2022/09/27 11:15:57;;;;;;;;;1.00;1.00;;;;;;;;5087846;27;45849;-83
2022/09/27 11:22:00;;;;;;;;;2.00;0.00;;;;;;;;5082957;27;45497;-77
2022/09/27 11:24:37;;;;;;;;;0.00;0.00;;;;;;;;5082487;27;45553;-80
2022/09/27 11:27:17;;;;;;;;;0.00;0.00;;;;;;;;5109638;27;45788;-84
2022/09/27 11:29:49;;;;;;;;;1.00;1.00;;;;;;;;5095165;27;45484;-77
2022/09/27 11:32:14;;;;;;;;;2.67;2.67;;;;;;;;5089107;27;45500;-79
2022/09/27 11:34:39;;;;;;;;;1.00;1.00;;;;;;;;5106866;27;45474;-77
2022/09/27 11:37:20;;;;;;;;;1.00;1.00;;;;;;;;5112614;27;45841;-82
2022/09/27 11:39:59;;;;;;;;;1.00;1.00;;;;;;;;5093397;27;47703;-83
2022/09/27 11:42:38;;;;;;;;;0.67;0.67;;;;;;;;5101015;27;45524;-82
2022/09/27 11:45:09;;;;;;;;;2.00;1.00;;;;;;;;5107388;27;45425;-83
2022/09/27 11:47:35;;;;;;;;;1.33;1.00;;;;;;;;5108305;27;45854;-82
2022/09/27 12:44:38;;;;;;;;;2.67;1.00;;;;;;;;5093967;27;45398;-81
2022/09/27 12:50:36;;;;;;;;;4.00;2.00;;;;;;;;5048797;28;45577;-83
2022/09/27 12:59:46;;;;;;;;;;;;;;;;;;;;;
2022/09/27 13:25:10;;;;;;;;;;;;;;;;;;;;;
2022/09/27 13:40:51;;;;;;;;;4.00;2.00;;;;;;;;4785447;29;45342;-83
2022/09/27 14:21:52;;;;;;;;;3.67;1.00;;;;;;;;4881556;29;45898;-84
2022/09/27 14:37:24;;;;;;;;;2.00;1.33;;;;;;;;4890763;29;45709;-80
2022/09/27 14:40:04;;;;;;;;;2.67;1.00;;;;;;;;4930738;28;45628;-86
2022/09/27 14:42:35;;;;;;;;;2.00;2.00;;;;;;;;5015504;27;45913;-81
2022/09/27 14:45:03;;;;;;;;;4.00;2.00;;;;;;;;5101464;27;46089;-79
2022/09/27 14:47:32;;;;;;;;;3.67;1.00;;;;;;;;5089377;27;45850;-81
2022/09/27 14:49:59;;;;;;;;;3.00;2.00;;;;;;;;5073605;27;45975;-78
2022/09/27 14:52:27;;;;;;;;;3.00;1.67;;;;;;;;5071501;27;46557;-78
2022/09/27 14:54:57;;;;;;;;;2.67;2.67;;;;;;;;5063754;27;45632;-85
2022/09/27 14:57:24;;;;;;;;;2.33;1.00;;;;;;;;5084139;27;45877;-85
2022/09/27 14:59:50;;;;;;;;;2.00;2.00;;;;;;;;5103979;27;44877;-86
2022/09/27 15:02:24;;;;;;;;;1.67;1.00;;;;;;;;5090200;27;45940;-82
2022/09/27 15:04:50;;;;;;;;;4.00;3.00;;;;;;;;5105268;27;45897;-81
2022/09/27 15:07:16;;;;;;;;;2.00;2.00;;;;;;;;5099944;27;45469;-81
2022/09/27 15:09:42;;;;;;;;;6.67;3.00;;;;;;;;5076979;27;45838;-81
2022/09/27 15:12:11;;;;;;;;;2.00;1.00;;;;;;;;5092763;27;45520;-82
2022/09/27 15:14:41;;;;;;;;;5.33;4.00;;;;;;;;5073995;27;46833;-80
2022/09/27 15:17:29;;;;;;;;;4.00;2.00;;;;;;;;5089648;27;45634;-84
2022/09/27 15:20:03;;;;;;;;;8.33;6.00;;;;;;;;5085698;27;45899;-82
2022/09/27 15:22:47;;;;;;;;;3.67;3.67;;;;;;;;5113587;27;45917;-82
2022/09/27 15:25:36;;;;;;;;;5.33;3.33;;;;;;;;5086434;27;45671;-83
2022/09/27 15:31:20;;;;;;;;;3.33;2.00;;;;;;;;5110489;27;45982;-83
2022/09/27 15:33:55;;;;;;;;;6.67;2.00;;;;;;;;5097731;27;45914;-81
2022/09/27 15:36:55;;;;;;;;;7.33;3.00;;;;;;;;5105043;27;45510;-84
2022/09/27 15:40:02;;;;;;;;;;;;;;;;;;;;;
2022/09/27 15:42:52;;;;;;;;;2.00;2.00;;;;;;;;5027044;27;68698;-83
2022/09/27 15:45:32;;;;;;;;;5.33;1.33;;;;;;;;5096131;27;45857;-82
2022/09/27 15:48:05;;;;;;;;;5.00;5.00;;;;;;;;5080071;27;47383;-82
2022/09/27 15:50:31;;;;;;;;;5.00;2.00;;;;;;;;5107570;27;45532;-83
2022/09/27 15:52:56;;;;;;;;;2.67;1.33;;;;;;;;5103195;27;45852;-82
2022/09/27 15:55:24;;;;;;;;;4.00;4.00;;;;;;;;5088698;27;46712;-83
2022/09/27 15:57:58;;;;;;;;;4.33;3.00;;;;;;;;5088587;27;49145;-83
2022/09/27 16:00:24;;;;;;;;;2.00;2.00;;;;;;;;5075737;27;45769;-84
2022/09/27 16:03:04;;;;;;;;;2.67;2.67;;;;;;;;5104777;27;45721;-83
2022/09/27 16:05:37;;;;;;;;;4.00;4.00;;;;;;;;5088156;27;45456;-84
2022/09/27 16:08:19;;;;;;;;;3.00;2.33;;;;;;;;5105391;27;45681;-83
2022/09/27 16:10:57;;;;;;;;;5.33;4.00;;;;;;;;5093735;27;45946;-90
2022/09/27 16:13:23;;;;;;;;;6.33;4.00;;;;;;;;5089873;27;45570;-83
2022/09/27 16:19:14;;;;;;;;;5.67;4.00;;;;;;;;5099111;27;46094;-84
2022/09/27 16:21:41;;;;;;;;;19.00;14.67;;;;;;;;5087216;27;45519;-84
2022/09/27 16:24:10;;;;;;;;;5.33;5.00;;;;;;;;5090070;27;45751;-84
2022/09/27 16:26:36;;;;;;;;;7.00;5.33;;;;;;;;5089293;27;45573;-79
2022/09/27 16:29:01;;;;;;;;;8.33;5.00;;;;;;;;5083397;27;46126;-85
2022/09/27 16:31:26;;;;;;;;;6.67;6.67;;;;;;;;5104231;27;46092;-86
2022/09/27 16:33:53;;;;;;;;;8.33;7.33;;;;;;;;5106673;27;45576;-83
2022/09/27 16:36:19;;;;;;;;;10.00;6.67;;;;;;;;5110627;27;45782;-84
2022/09/27 16:38:51;;;;;;;;;6.00;4.33;;;;;;;;5107247;27;46126;-79
2022/09/27 16:41:17;;;;;;;;;6.00;6.00;;;;;;;;5104023;27;46075;-82
2022/09/27 16:43:46;;;;;;;;;1.00;1.00;;;;;;;;5090881;27;45945;-89
2022/09/27 16:46:14;;;;;;;;;6.00;6.00;;;;;;;;5114337;27;45877;-86
2022/09/27 16:48:40;;;;;;;;;4.00;4.00;;;;;;;;5094243;27;45950;-87
2022/09/27 16:54:09;;;;;;;;;4.33;4.33;;;;;;;;5107631;27;45480;-86
2022/09/27 16:56:35;;;;;;;;;4.67;3.00;;;;;;;;5107871;27;45552;-83
2022/09/27 16:59:03;;;;;;;;;7.00;4.67;;;;;;;;5093788;27;45900;-87
2022/09/27 17:01:32;;;;;;;;;6.00;3.00;;;;;;;;5117116;27;46050;-84
2022/09/27 17:04:08;;;;;;;;;5.00;5.00;;;;;;;;5095715;27;45426;-87
2022/09/27 17:06:46;;;;;;;;;7.67;4.33;;;;;;;;5102586;27;45449;-84
2022/09/27 17:09:14;;;;;;;;;3.67;3.33;;;;;;;;5098252;27;45909;-85
2022/09/27 17:11:40;;;;;;;;;1.33;1.00;;;;;;;;5111919;27;45482;-83
2022/09/27 17:14:06;;;;;;;;;5.00;2.00;;;;;;;;5094080;27;45595;-81
2022/09/27 17:29:56;;;;;;;;;3.33;3.00;;;;;;;;5063411;28;45494;-82
2022/09/27 17:32:23;;;;;;;;;6.67;4.00;;;;;;;;5038886;28;45581;-85
2022/09/27 17:34:54;;;;;;;;;3.00;1.67;;;;;;;;5045185;28;45369;-83
2022/09/27 17:37:19;;;;;;;;;4.33;2.33;;;;;;;;5090267;27;45590;-83
2022/09/27 17:39:50;;;;;;;;;4.00;2.33;;;;;;;;5091351;27;45665;-81
2022/09/27 17:46:24;;;;;;;;;6.00;4.33;;;;;;;;5039757;28;45854;-85
2022/09/27 17:51:52;;;;;;;;;5.33;3.00;;;;;;;;5109175;27;45423;-80
2022/09/27 17:58:10;;;;;;;;;4.33;3.33;;;;;;;;5098657;27;45391;-86
2022/09/27 18:10:18;;;;;;;;;;;;;;;;;;;;;
2022/09/27 18:19:20;;;;;;;;;12.00;8.67;;;;;;;;4991362;28;45937;-82
2022/09/27 18:22:14;;;;;;;;;4.67;4.00;;;;;;;;5019693;28;46507;-81
2022/09/27 18:24:39;;;;;;;;;10.00;8.67;;;;;;;;5013978;28;45642;-81
2022/09/27 18:27:07;;;;;;;;;10.33;9.33;;;;;;;;5040454;27;46855;-80
2022/09/27 18:29:35;;;;;;;;;13.00;12.67;;;;;;;;5063395;27;47266;-84
2022/09/27 18:32:06;;;;;;;;;12.67;9.33;;;;;;;;5078510;27;45599;-86
2022/09/27 18:34:32;;;;;;;;;9.33;5.00;;;;;;;;5072924;27;45582;-84
2022/09/27 18:36:57;;;;;;;;;7.67;5.33;;;;;;;;5066029;27;46110;-86
2022/09/27 18:39:22;;;;;;;;;7.33;5.67;;;;;;;;5060354;27;45576;-78
2022/09/27 18:41:48;;;;;;;;;10.33;7.33;;;;;;;;5077738;27;45896;-80
2022/09/27 18:44:17;;;;;;;;;11.67;9.00;;;;;;;;5064117;27;45759;-85
2022/09/27 18:46:43;;;;;;;;;10.00;3.67;;;;;;;;5070519;27;45821;-85
2022/09/27 18:49:10;;;;;;;;;8.00;6.00;;;;;;;;5064776;27;47317;-79